Time;durP1;ratioP1;P1;durP2;ratioP2;P2;SDS_P1;SDS_P2;PMS_P1;PMS_P2;Temp;Humidity;BMP_temperature;BMP_pressure;BME280_temperature;BME280_humidity;BME280_pressure;Samples;Min_cycle;Max_cycle;Signal;HPM_P1;HPM_P2
2021/03/23 00:01:38;;;;;;;1.52;1.17;;;11.60;99.90;;;;;;5126053;28;20274;-43
2021/03/23 00:04:11;;;;;;;1.73;1.20;;;11.60;99.90;;;;;;5125943;28;20212;-43
2021/03/23 00:06:41;;;;;;;2.75;1.10;;;11.50;99.90;;;;;;5125736;28;20225;-43
2021/03/23 00:09:12;;;;;;;1.75;1.00;;;11.60;99.90;;;;;;5125492;28;20212;-46
2021/03/23 00:11:43;;;;;;;2.55;0.82;;;11.50;99.90;;;;;;5124756;28;20207;-43
2021/03/23 00:14:15;;;;;;;3.60;0.80;;;11.60;99.70;;;;;;5124904;28;20194;-45
2021/03/23 00:16:46;;;;;;;1.63;0.95;;;11.70;99.90;;;;;;5122634;28;20455;-43
2021/03/23 00:19:17;;;;;;;1.10;0.90;;;11.80;99.90;;;;;;5125550;28;20228;-45
2021/03/23 00:21:48;;;;;;;1.70;0.90;;;11.90;98.70;;;;;;5122405;28;20585;-46
2021/03/23 00:24:18;;;;;;;1.03;0.93;;;12.00;96.80;;;;;;5125443;28;20777;-43
2021/03/23 00:26:48;;;;;;;2.23;0.90;;;12.00;98.20;;;;;;5123470;28;20492;-44
2021/03/23 00:29:19;;;;;;;1.77;0.90;;;12.00;97.30;;;;;;5124168;28;20453;-44
2021/03/23 00:31:49;;;;;;;2.50;1.00;;;11.80;98.30;;;;;;5124831;28;20223;-44
2021/03/23 00:34:19;;;;;;;4.00;1.20;;;11.70;99.40;;;;;;5125299;28;20201;-44
2021/03/23 00:36:49;;;;;;;4.80;1.60;;;11.80;99.60;;;;;;5124556;28;20547;-44
2021/03/23 00:39:19;;;;;;;2.28;1.20;;;11.90;99.90;;;;;;5125136;28;20224;-44
2021/03/23 00:41:49;;;;;;;1.57;1.47;;;11.70;99.90;;;;;;5124363;28;20223;-44
2021/03/23 00:44:21;;;;;;;1.20;0.77;;;11.50;99.90;;;;;;5125100;28;20456;-44
2021/03/23 00:46:51;;;;;;;2.63;0.88;;;11.30;99.90;;;;;;5123705;28;20477;-44
2021/03/23 00:49:22;;;;;;;5.80;1.50;;;11.10;99.90;;;;;;5125055;28;20301;-44
2021/03/23 00:51:53;;;;;;;2.50;1.02;;;11.10;99.90;;;;;;5116896;27;20533;-43
2021/03/23 00:54:23;;;;;;;1.92;1.48;;;11.10;99.90;;;;;;5117252;28;20263;-43
2021/03/23 00:56:53;;;;;;;2.15;1.65;;;11.10;99.90;;;;;;5124843;28;20205;-43
2021/03/23 00:59:24;;;;;;;5.80;1.80;;;11.00;99.90;;;;;;5126074;28;20201;-44
2021/03/23 01:01:54;;;;;;;2.45;1.40;;;10.90;99.90;;;;;;5120725;28;20230;-46
2021/03/23 01:04:25;;;;;;;4.82;4.03;;;10.90;99.90;;;;;;5123443;28;20202;-42
2021/03/23 01:06:55;;;;;;;4.43;2.13;;;10.80;99.90;;;;;;5121356;28;20230;-43
2021/03/23 01:09:25;;;;;;;3.78;3.25;;;10.90;99.90;;;;;;5125132;28;20203;-43
2021/03/23 01:11:55;;;;;;;7.43;4.70;;;10.90;99.90;;;;;;5123691;28;20738;-42
2021/03/23 01:14:26;;;;;;;5.50;4.07;;;10.80;99.90;;;;;;5123677;28;20453;-45
2021/03/23 01:16:56;;;;;;;7.78;6.80;;;10.80;99.90;;;;;;5121184;28;21187;-44
2021/03/23 01:19:27;;;;;;;2.40;2.03;;;10.60;99.90;;;;;;5124140;28;20308;-44
2021/03/23 01:21:57;;;;;;;3.47;1.92;;;10.50;99.90;;;;;;5124263;28;20201;-44
2021/03/23 01:24:36;;;;;;;2.00;1.80;;;10.60;99.90;;;;;;5125108;28;20279;-44
2021/03/23 01:27:07;;;;;;;3.85;2.10;;;10.50;99.90;;;;;;5123610;28;20220;-43
2021/03/23 01:29:38;;;;;;;4.00;3.60;;;10.40;99.90;;;;;;5125330;28;20566;-44
2021/03/23 01:32:09;;;;;;;3.80;2.95;;;10.30;99.90;;;;;;5111217;28;20197;-43
2021/03/23 01:34:47;;;;;;;2.75;2.35;;;10.30;99.90;;;;;;5125015;28;20202;-43
2021/03/23 01:37:18;;;;;;;4.15;3.22;;;10.20;99.90;;;;;;5124517;28;20209;-44
2021/03/23 01:39:48;;;;;;;3.80;1.90;;;10.10;99.90;;;;;;5124676;28;20242;-44
2021/03/23 01:42:20;;;;;;;2.70;1.40;;;10.00;99.90;;;;;;5121137;28;20665;-42
2021/03/23 01:45:15;;;;;;;2.33;1.90;;;10.00;99.90;;;;;;5123978;28;20206;-43
2021/03/23 01:47:45;;;;;;;4.13;1.52;;;9.80;99.90;;;;;;5124312;28;20253;-43
2021/03/23 01:50:16;;;;;;;3.65;2.25;;;9.80;99.90;;;;;;5124295;28;20212;-43
2021/03/23 01:52:50;;;;;;;5.15;3.25;;;9.80;99.90;;;;;;5123982;28;20229;-43
2021/03/23 01:55:21;;;;;;;3.28;2.97;;;9.70;99.90;;;;;;5123302;28;20196;-44
2021/03/23 01:57:53;;;;;;;4.18;2.72;;;9.70;99.90;;;;;;5123457;28;20212;-44
2021/03/23 02:00:26;;;;;;;6.55;3.55;;;9.70;99.90;;;;;;5124551;28;20270;-42
2021/03/23 02:02:56;;;;;;;6.93;2.90;;;9.70;99.90;;;;;;5123671;28;20528;-42
2021/03/23 02:05:29;;;;;;;5.03;4.55;;;9.70;99.90;;;;;;5124254;28;20359;-43
2021/03/23 02:08:01;;;;;;;4.15;2.25;;;9.70;99.90;;;;;;5108445;28;20253;-42
2021/03/23 02:10:32;;;;;;;3.42;2.17;;;9.70;99.90;;;;;;5124169;28;20196;-42
2021/03/23 02:13:05;;;;;;;3.55;2.47;;;9.70;99.90;;;;;;5121963;28;20205;-42
2021/03/23 02:15:36;;;;;;;4.13;2.03;;;9.70;99.90;;;;;;5123347;28;20199;-43
2021/03/23 02:18:08;;;;;;;3.20;1.85;;;9.80;99.90;;;;;;5123841;28;20196;-42
2021/03/23 02:20:56;;;;;;;5.03;2.20;;;9.80;99.90;;;;;;5123534;28;20204;-42
2021/03/23 02:23:29;;;;;;;7.13;5.82;;;9.70;99.90;;;;;;5110451;28;20688;-43
2021/03/23 02:25:59;;;;;;;2.42;2.10;;;9.70;99.90;;;;;;5123220;28;20254;-42
2021/03/23 02:28:30;;;;;;;2.45;2.25;;;9.70;99.90;;;;;;5123229;28;20300;-44
2021/03/23 02:31:00;;;;;;;4.05;2.10;;;9.70;99.90;;;;;;5123892;28;20222;-43
2021/03/23 02:33:30;;;;;;;2.63;2.22;;;9.70;99.90;;;;;;5123348;28;20193;-42
2021/03/23 02:36:01;;;;;;;2.70;2.08;;;9.70;99.90;;;;;;5123926;28;20200;-43
2021/03/23 02:38:31;;;;;;;3.88;2.25;;;9.80;99.90;;;;;;5123510;28;20712;-43
2021/03/23 02:41:01;;;;;;;5.93;2.63;;;9.70;99.90;;;;;;5122370;28;20249;-42
2021/03/23 02:43:32;;;;;;;7.28;2.47;;;9.60;99.90;;;;;;5106640;28;20212;-43
2021/03/23 02:46:03;;;;;;;2.72;1.60;;;9.50;99.90;;;;;;5123262;28;20204;-43
2021/03/23 02:48:33;;;;;;;5.43;1.95;;;9.40;99.90;;;;;;5121304;28;20213;-43
2021/03/23 02:51:05;;;;;;;4.72;2.00;;;9.40;99.90;;;;;;5122702;28;20204;-42
2021/03/23 02:53:35;;;;;;;3.80;2.35;;;9.30;99.90;;;;;;5111282;28;20204;-43
2021/03/23 02:56:05;;;;;;;3.33;2.20;;;9.30;99.90;;;;;;5123289;28;20212;-42
2021/03/23 02:58:35;;;;;;;5.15;2.92;;;9.20;99.90;;;;;;5122458;28;20204;-44
2021/03/23 03:01:06;;;;;;;3.35;2.10;;;9.00;99.90;;;;;;5122263;28;20196;-42
2021/03/23 03:03:36;;;;;;;2.40;2.20;;;8.90;99.90;;;;;;5122843;28;20195;-43
2021/03/23 03:06:11;;;;;;;4.10;2.20;;;8.80;99.90;;;;;;5121374;28;20195;-43
2021/03/23 03:08:41;;;;;;;3.22;2.20;;;8.70;99.90;;;;;;5119760;28;20203;-44
2021/03/23 03:11:11;;;;;;;3.67;2.30;;;8.60;99.90;;;;;;5122319;28;20221;-43
2021/03/23 03:13:43;;;;;;;4.60;2.15;;;8.60;99.90;;;;;;5122451;28;20225;-44
2021/03/23 03:16:13;;;;;;;2.60;1.95;;;8.40;99.90;;;;;;5123341;28;20215;-44
2021/03/23 03:18:43;;;;;;;3.22;2.17;;;8.30;99.90;;;;;;5123766;28;20199;-44
2021/03/23 03:21:14;;;;;;;4.57;3.50;;;8.30;99.90;;;;;;5119988;28;20204;-42
2021/03/23 03:23:44;;;;;;;3.70;2.80;;;8.20;99.90;;;;;;5122640;28;20282;-45
2021/03/23 03:26:14;;;;;;;4.60;2.80;;;8.20;99.90;;;;;;5126048;28;20208;-44
2021/03/23 03:28:50;;;;;;;4.85;2.83;;;8.30;99.90;;;;;;5126610;28;20211;-44
2021/03/23 03:31:21;;;;;;;3.35;2.40;;;8.20;99.90;;;;;;5116197;28;20200;-44
2021/03/23 03:33:54;;;;;;;4.63;2.03;;;8.00;99.90;;;;;;5126714;28;20291;-44
2021/03/23 03:36:26;;;;;;;3.35;2.10;;;7.90;99.90;;;;;;5125774;28;20267;-44
2021/03/23 03:38:57;;;;;;;4.65;2.33;;;7.80;99.90;;;;;;5125788;28;20211;-45
2021/03/23 03:41:28;;;;;;;3.28;2.17;;;7.70;99.90;;;;;;5125347;28;20718;-42
2021/03/23 03:43:59;;;;;;;3.45;2.63;;;7.70;99.90;;;;;;5126599;28;20259;-43
2021/03/23 03:46:29;;;;;;;4.00;2.95;;;7.70;99.90;;;;;;5126492;28;20206;-45
2021/03/23 03:49:00;;;;;;;4.75;2.80;;;7.80;99.90;;;;;;5127008;28;20184;-43
2021/03/23 03:51:31;;;;;;;4.32;2.80;;;7.80;99.90;;;;;;5125756;28;20241;-43
2021/03/23 03:54:04;;;;;;;6.95;3.30;;;7.70;99.90;;;;;;5125830;28;20226;-43
2021/03/23 03:56:34;;;;;;;6.00;3.70;;;7.70;99.90;;;;;;5124234;28;20288;-43
2021/03/23 03:59:04;;;;;;;6.82;3.30;;;7.60;99.90;;;;;;5126472;28;20269;-44
2021/03/23 04:01:34;;;;;;;3.33;2.38;;;7.60;99.90;;;;;;5126210;27;20211;-42
2021/03/23 04:04:05;;;;;;;5.45;3.00;;;7.50;99.90;;;;;;5126118;28;20200;-43
2021/03/23 04:06:42;;;;;;;4.07;2.92;;;7.50;99.90;;;;;;5126121;28;20306;-43
2021/03/23 04:09:12;;;;;;;4.80;2.90;;;7.40;99.90;;;;;;5125255;28;20203;-43
2021/03/23 04:11:42;;;;;;;3.47;2.50;;;7.40;99.90;;;;;;5119519;28;20258;-42
2021/03/23 04:14:12;;;;;;;4.15;2.53;;;7.40;99.90;;;;;;5114994;28;20249;-45
2021/03/23 04:16:42;;;;;;;4.00;2.88;;;7.40;99.90;;;;;;5126775;27;20221;-43
2021/03/23 04:19:12;;;;;;;3.78;3.47;;;7.30;99.90;;;;;;5122727;28;20192;-44
2021/03/23 04:21:43;;;;;;;4.10;3.40;;;7.20;99.90;;;;;;5124790;28;20262;-44
2021/03/23 04:24:13;;;;;;;4.18;2.80;;;7.20;99.90;;;;;;5125864;28;20244;-44
2021/03/23 04:26:43;;;;;;;3.50;3.00;;;7.20;99.90;;;;;;5123036;28;20265;-44
2021/03/23 04:29:13;;;;;;;3.90;2.88;;;7.20;99.90;;;;;;5125945;28;20204;-44
2021/03/23 04:31:44;;;;;;;2.85;2.55;;;7.10;99.90;;;;;;5125656;28;20261;-45
2021/03/23 04:34:15;;;;;;;5.82;2.90;;;7.10;99.90;;;;;;5123670;28;20249;-44
2021/03/23 04:37:05;;;;;;;5.25;3.50;;;7.10;99.90;;;;;;5124136;28;20276;-44
2021/03/23 04:39:35;;;;;;;4.30;2.95;;;7.10;99.90;;;;;;5125726;28;20585;-45
2021/03/23 04:42:06;;;;;;;3.67;2.72;;;7.10;99.90;;;;;;5122633;27;20236;-44
2021/03/23 04:44:36;;;;;;;2.53;2.33;;;7.20;99.90;;;;;;5124964;28;20199;-43
2021/03/23 04:47:07;;;;;;;2.78;2.35;;;7.20;99.90;;;;;;5123926;28;20296;-43
2021/03/23 04:49:41;;;;;;;5.00;2.80;;;7.20;99.90;;;;;;5123035;28;20191;-44
2021/03/23 04:52:12;;;;;;;6.90;2.65;;;7.20;99.90;;;;;;5124909;28;20199;-44
2021/03/23 04:54:42;;;;;;;4.13;2.60;;;7.20;99.90;;;;;;5125169;28;20200;-46
2021/03/23 04:57:12;;;;;;;5.03;3.03;;;7.10;99.90;;;;;;5124299;28;20268;-44
2021/03/23 04:59:42;;;;;;;3.17;2.90;;;7.10;99.90;;;;;;5121045;28;20199;-44
2021/03/23 05:02:12;;;;;;;5.40;2.83;;;7.10;99.90;;;;;;5125051;28;20241;-43
2021/03/23 05:04:43;;;;;;;2.72;2.53;;;7.00;99.90;;;;;;5124521;28;20192;-45
2021/03/23 05:07:26;;;;;;;4.25;3.85;;;6.90;99.90;;;;;;5124939;28;20203;-45
2021/03/23 05:09:56;;;;;;;4.78;3.25;;;6.90;99.90;;;;;;5124738;28;20203;-45
2021/03/23 05:12:26;;;;;;;6.03;3.53;;;6.80;99.90;;;;;;5119877;28;20204;-45
2021/03/23 05:14:56;;;;;;;4.00;2.50;;;6.70;99.90;;;;;;5123945;28;20204;-45
2021/03/23 05:17:26;;;;;;;3.88;2.55;;;6.70;99.90;;;;;;5124543;28;20196;-44
2021/03/23 05:19:56;;;;;;;4.55;3.53;;;6.70;99.90;;;;;;5123169;28;20184;-45
2021/03/23 05:22:28;;;;;;;4.00;3.45;;;6.70;99.90;;;;;;5117260;28;20208;-45
2021/03/23 05:24:58;;;;;;;3.55;3.25;;;6.70;99.90;;;;;;5124221;28;20192;-44
2021/03/23 05:27:28;;;;;;;8.80;3.38;;;6.70;99.90;;;;;;5123227;28;20231;-45
2021/03/23 05:29:58;;;;;;;8.98;5.07;;;6.60;99.90;;;;;;5125220;28;20249;-45
2021/03/23 05:32:28;;;;;;;3.35;2.63;;;6.50;99.90;;;;;;5124386;28;20188;-44
2021/03/23 05:34:58;;;;;;;4.70;2.72;;;6.50;99.90;;;;;;5123981;28;20199;-45
2021/03/23 05:37:48;;;;;;;4.25;3.05;;;6.40;99.90;;;;;;5124665;28;20300;-44
2021/03/23 05:40:24;;;;;;;7.20;3.05;;;6.40;99.90;;;;;;5124173;28;20264;-44
2021/03/23 05:43:32;;;;;;;5.65;2.72;;;6.40;99.90;;;;;;5139981;27;20220;-44
2021/03/23 05:46:09;;;;;;;3.97;2.40;;;6.30;99.90;;;;;;5123104;28;20222;-45
2021/03/23 05:48:46;;;;;;;4.63;3.60;;;6.30;99.90;;;;;;5122986;28;20254;-44
2021/03/23 05:51:21;;;;;;;4.88;3.10;;;6.30;99.90;;;;;;5109398;28;20295;-44
2021/03/23 05:54:00;;;;;;;4.28;3.03;;;6.20;99.90;;;;;;5124703;28;20265;-44
2021/03/23 05:56:34;;;;;;;4.88;2.38;;;6.20;99.90;;;;;;5123166;28;20585;-43
2021/03/23 05:59:13;;;;;;;4.90;2.97;;;6.30;99.90;;;;;;5124232;28;20196;-44
2021/03/23 06:01:49;;;;;;;6.72;2.45;;;6.20;99.90;;;;;;5124339;28;20204;-44
2021/03/23 06:04:28;;;;;;;4.45;2.40;;;6.30;99.90;;;;;;5123536;28;20204;-44
2021/03/23 06:07:04;;;;;;;3.00;2.35;;;6.30;99.90;;;;;;5123872;28;20204;-44
2021/03/23 06:09:36;;;;;;;3.72;2.80;;;6.30;99.90;;;;;;5123352;28;20191;-44
2021/03/23 06:12:18;;;;;;;6.20;3.05;;;6.40;99.90;;;;;;5118203;28;20200;-44
2021/03/23 06:14:58;;;;;;;4.18;2.63;;;6.40;99.90;;;;;;5119566;28;20218;-44
2021/03/23 06:17:49;;;;;;;4.47;2.38;;;6.40;99.90;;;;;;5123419;28;20261;-44
2021/03/23 06:20:31;;;;;;;4.13;2.67;;;6.30;99.90;;;;;;5116987;28;20207;-44
2021/03/23 06:23:43;;;;;;;4.38;2.80;;;6.40;99.90;;;;;;5122272;28;20195;-43
2021/03/23 06:26:27;;;;;;;3.70;2.50;;;6.30;99.90;;;;;;5123053;28;20719;-43
2021/03/23 06:29:12;;;;;;;4.43;2.80;;;6.20;99.90;;;;;;5123442;28;20289;-44
2021/03/23 06:32:11;;;;;;;3.65;2.70;;;6.30;99.90;;;;;;5123491;28;20204;-44
2021/03/23 06:34:42;;;;;;;3.10;2.63;;;6.20;99.90;;;;;;5082363;28;20204;-43
2021/03/23 06:37:26;;;;;;;5.60;2.30;;;6.20;99.90;;;;;;5122484;28;20208;-44
2021/03/23 06:39:58;;;;;;;6.60;2.58;;;6.20;99.90;;;;;;5123249;28;20260;-43
2021/03/23 06:42:34;;;;;;;3.63;3.22;;;6.20;99.90;;;;;;5122173;28;20231;-43
2021/03/23 06:45:31;;;;;;;3.85;2.63;;;6.10;99.90;;;;;;5120010;28;20195;-42
2021/03/23 06:48:22;;;;;;;4.63;2.22;;;6.00;99.90;;;;;;5123014;28;20211;-45
2021/03/23 06:51:06;;;;;;;3.22;2.50;;;6.10;99.90;;;;;;5123138;28;20192;-45
2021/03/23 06:53:36;;;;;;;4.22;2.53;;;6.00;99.90;;;;;;5123948;28;20188;-45
2021/03/23 06:56:19;;;;;;;4.63;2.40;;;5.90;99.90;;;;;;5122183;28;20196;-43
2021/03/23 06:59:10;;;;;;;3.38;2.50;;;5.80;99.90;;;;;;5123052;28;20252;-44
2021/03/23 07:01:42;;;;;;;4.07;2.50;;;5.70;99.90;;;;;;5106974;28;20191;-43
2021/03/23 07:04:28;;;;;;;3.08;2.13;;;5.70;99.90;;;;;;5123149;28;20274;-44
2021/03/23 07:07:16;;;;;;;6.43;2.63;;;5.70;99.90;;;;;;5107960;28;20605;-43
2021/03/23 07:09:53;;;;;;;3.58;2.70;;;5.60;99.90;;;;;;5108052;28;20196;-43
2021/03/23 07:12:39;;;;;;;7.05;2.78;;;5.50;99.90;;;;;;5121947;28;20188;-42
2021/03/23 07:15:14;;;;;;;8.65;4.80;;;5.50;99.90;;;;;;5122272;28;20237;-44
2021/03/23 07:17:45;;;;;;;3.80;2.65;;;5.40;99.90;;;;;;5122053;28;20282;-44
2021/03/23 07:20:43;;;;;;;6.43;2.72;;;5.40;99.90;;;;;;5122799;28;20323;-44
2021/03/23 07:23:33;;;;;;;3.80;2.30;;;5.40;99.90;;;;;;5118779;28;20206;-44
2021/03/23 07:26:20;;;;;;;6.85;2.70;;;5.30;99.90;;;;;;5116162;28;20203;-44
2021/03/23 07:28:50;;;;;;;4.95;2.72;;;5.20;99.90;;;;;;5113999;28;20227;-44
2021/03/23 07:31:28;;;;;;;5.90;2.60;;;5.20;99.90;;;;;;5122826;28;20324;-44
2021/03/23 07:34:10;;;;;;;7.45;3.00;;;5.10;99.90;;;;;;5115513;28;20259;-43
2021/03/23 07:36:43;;;;;;;3.95;2.58;;;5.10;99.90;;;;;;5120636;28;20192;-42
2021/03/23 07:39:25;;;;;;;5.70;2.80;;;5.00;99.90;;;;;;5122377;28;20184;-43
2021/03/23 07:41:59;;;;;;;4.13;2.38;;;4.90;99.90;;;;;;5105853;28;20224;-43
2021/03/23 07:44:38;;;;;;;3.40;3.08;;;4.90;99.90;;;;;;5121774;28;20246;-43
2021/03/23 07:47:16;;;;;;;7.07;3.15;;;4.80;99.90;;;;;;5116204;28;20223;-43
2021/03/23 07:49:52;;;;;;;4.80;2.50;;;4.90;99.90;;;;;;5121877;28;20195;-43
2021/03/23 07:52:25;;;;;;;5.82;3.33;;;4.90;99.90;;;;;;5122841;28;20214;-42
2021/03/23 07:54:59;;;;;;;5.90;3.90;;;4.80;99.90;;;;;;5122524;28;20210;-43
2021/03/23 07:57:59;;;;;;;4.97;3.00;;;4.70;99.90;;;;;;5121209;28;20195;-43
2021/03/23 08:01:00;;;;;;;5.43;3.33;;;4.70;99.90;;;;;;5122663;28;20299;-43
2021/03/23 08:04:04;;;;;;;6.72;3.50;;;4.60;99.90;;;;;;5108361;28;20241;-44
2021/03/23 08:06:51;;;;;;;5.78;3.10;;;4.60;99.90;;;;;;5121688;28;20195;-43
2021/03/23 08:09:39;;;;;;;5.05;3.20;;;4.60;99.90;;;;;;5107983;28;20636;-43
2021/03/23 08:12:23;;;;;;;4.05;2.90;;;4.60;99.90;;;;;;5123686;28;20199;-43
2021/03/23 08:15:09;;;;;;;12.63;4.55;;;4.60;99.90;;;;;;5125748;28;20204;-43
2021/03/23 08:18:04;;;;;;;5.53;3.60;;;4.50;99.90;;;;;;5111668;28;20204;-43
2021/03/23 08:21:06;;;;;;;6.13;3.40;;;4.50;99.90;;;;;;5126050;28;20211;-43
2021/03/23 08:24:04;;;;;;;4.88;3.10;;;4.50;99.90;;;;;;5125792;28;20203;-43
2021/03/23 08:26:47;;;;;;;7.25;3.65;;;4.60;99.90;;;;;;5123656;28;20261;-43
2021/03/23 08:29:22;;;;;;;4.53;3.35;;;4.70;99.90;;;;;;5124394;28;20223;-43
2021/03/23 08:32:11;;;;;;;7.40;4.07;;;4.70;99.90;;;;;;5125551;28;20191;-43
2021/03/23 08:35:11;;;;;;;5.88;3.70;;;4.80;99.90;;;;;;5125551;28;20196;-43
2021/03/23 08:37:58;;;;;;;10.90;5.03;;;4.90;99.90;;;;;;5124273;28;20210;-44
2021/03/23 08:40:34;;;;;;;7.78;5.32;;;5.00;99.90;;;;;;5126007;28;20516;-43
2021/03/23 08:43:06;;;;;;;4.20;3.63;;;5.10;99.90;;;;;;5124698;28;20255;-44
2021/03/23 08:45:41;;;;;;;5.70;4.22;;;5.20;99.90;;;;;;5126127;28;20207;-44
2021/03/23 08:48:39;;;;;;;6.20;4.28;;;5.20;99.90;;;;;;5124505;28;20264;-43
2021/03/23 08:51:12;;;;;;;4.30;3.80;;;5.10;99.90;;;;;;5125149;28;20207;-43
2021/03/23 08:53:46;;;;;;;4.55;3.33;;;5.10;99.90;;;;;;5110775;28;20192;-43
2021/03/23 08:56:16;;;;;;;6.40;3.38;;;5.20;99.90;;;;;;5124423;28;20200;-43
2021/03/23 08:58:49;;;;;;;4.13;3.22;;;5.20;99.90;;;;;;5125060;27;20243;-43
2021/03/23 09:01:40;;;;;;;5.57;3.72;;;5.30;99.90;;;;;;5123283;28;20204;-43
2021/03/23 09:04:34;;;;;;;9.30;4.28;;;5.30;99.90;;;;;;5125020;28;21701;-43
2021/03/23 09:07:20;;;;;;;7.35;4.43;;;5.40;99.90;;;;;;5118344;28;20239;-44
2021/03/23 09:09:52;;;;;;;6.50;3.88;;;5.50;99.90;;;;;;5125801;28;20200;-44
2021/03/23 09:12:39;;;;;;;4.18;3.53;;;5.50;99.90;;;;;;5124483;28;20204;-43
2021/03/23 09:15:22;;;;;;;6.85;3.95;;;5.40;99.90;;;;;;5119825;28;20256;-43
2021/03/23 09:18:00;;;;;;;5.07;3.90;;;5.30;99.90;;;;;;5124211;28;20783;-43
2021/03/23 09:21:03;;;;;;;5.72;4.07;;;5.30;99.90;;;;;;5124982;28;20211;-43
2021/03/23 09:23:50;;;;;;;7.85;4.00;;;5.20;99.90;;;;;;5124449;28;20199;-43
2021/03/23 09:26:41;;;;;;;8.52;3.88;;;5.10;99.90;;;;;;5122729;28;20489;-43
2021/03/23 09:29:42;;;;;;;5.15;3.47;;;5.00;99.90;;;;;;5111840;28;20281;-44
2021/03/23 09:32:16;;;;;;;7.43;4.47;;;4.90;99.90;;;;;;5123141;28;20526;-43
2021/03/23 09:35:09;;;;;;;4.97;3.40;;;4.80;99.90;;;;;;5124322;28;20204;-42
2021/03/23 09:37:42;;;;;;;5.30;4.00;;;4.70;99.90;;;;;;5123903;28;20214;-45
2021/03/23 09:40:38;;;;;;;5.93;4.20;;;4.60;99.90;;;;;;5124629;28;20194;-43
2021/03/23 09:43:37;;;;;;;5.53;3.25;;;4.60;99.90;;;;;;5122885;28;20327;-44
2021/03/23 09:46:41;;;;;;;5.10;4.00;;;4.60;99.90;;;;;;5122634;28;20207;-43
2021/03/23 09:49:19;;;;;;;5.28;3.95;;;4.50;99.90;;;;;;5120065;28;20224;-43
2021/03/23 09:51:57;;;;;;;9.20;3.92;;;4.40;99.90;;;;;;5120719;28;20263;-43
2021/03/23 09:54:31;;;;;;;9.00;5.82;;;4.40;99.90;;;;;;5124475;28;20578;-43
2021/03/23 09:57:02;;;;;;;8.20;4.60;;;4.40;99.90;;;;;;5122919;28;20248;-42
2021/03/23 09:59:56;;;;;;;5.65;4.03;;;4.30;99.90;;;;;;5124361;28;20389;-43
2021/03/23 10:02:30;;;;;;;6.45;4.30;;;4.30;99.90;;;;;;5123041;28;20555;-43
2021/03/23 10:05:16;;;;;;;8.18;5.13;;;4.30;99.90;;;;;;5124276;28;20196;-41
2021/03/23 10:07:48;;;;;;;6.45;4.82;;;4.20;99.90;;;;;;5106460;28;20416;-43
2021/03/23 10:10:27;;;;;;;5.20;4.20;;;4.10;99.90;;;;;;5123967;28;20273;-42
2021/03/23 10:12:58;;;;;;;7.90;4.60;;;4.00;99.90;;;;;;5122996;28;20196;-43
2021/03/23 10:15:34;;;;;;;9.93;4.45;;;3.90;99.90;;;;;;5122969;28;20349;-44
2021/03/23 10:18:11;;;;;;;9.32;5.28;;;3.90;99.90;;;;;;5122656;28;20218;-44
2021/03/23 10:20:42;;;;;;;5.95;4.30;;;3.90;99.90;;;;;;5123683;28;20650;-43
2021/03/23 10:23:12;;;;;;;5.95;4.10;;;3.90;99.90;;;;;;5123636;28;20228;-42
2021/03/23 10:25:44;;;;;;;10.55;4.60;;;3.90;99.90;;;;;;5121189;28;20252;-43
2021/03/23 10:28:27;;;;;;;7.35;4.72;;;3.80;99.90;;;;;;5119010;28;20271;-43
2021/03/23 10:31:03;;;;;;;5.63;3.55;;;3.70;99.90;;;;;;5121671;28;20199;-43
2021/03/23 10:33:35;;;;;;;6.45;4.22;;;3.70;99.90;;;;;;5122930;28;20559;-42
2021/03/23 10:36:07;;;;;;;8.27;4.20;;;3.70;99.90;;;;;;5121785;28;20245;-43
2021/03/23 10:38:41;;;;;;;7.18;4.75;;;3.60;99.90;;;;;;5106899;28;20203;-42
2021/03/23 10:41:37;;;;;;;6.55;4.72;;;3.50;99.90;;;;;;5123459;28;20269;-41
2021/03/23 10:44:23;;;;;;;6.53;4.40;;;3.50;99.90;;;;;;5117167;28;20214;-43
2021/03/23 10:46:56;;;;;;;4.72;3.95;;;3.40;99.90;;;;;;5121824;28;20226;-43
2021/03/23 10:49:31;;;;;;;13.48;4.93;;;3.40;99.90;;;;;;5122566;28;20353;-44
2021/03/23 10:52:05;;;;;;;6.43;4.43;;;3.30;99.90;;;;;;5123202;28;20213;-43
2021/03/23 10:54:37;;;;;;;6.68;4.18;;;3.30;99.90;;;;;;5122656;28;20208;-42
2021/03/23 10:57:28;;;;;;;12.00;5.05;;;3.30;99.90;;;;;;5121341;28;20762;-42
2021/03/23 11:00:14;;;;;;;7.45;4.50;;;3.30;99.90;;;;;;5121983;28;20207;-42
2021/03/23 11:02:46;;;;;;;6.03;4.30;;;3.20;99.90;;;;;;5121598;28;20188;-42
2021/03/23 11:05:19;;;;;;;8.30;4.47;;;3.20;99.90;;;;;;5123455;28;20195;-43
2021/03/23 11:08:02;;;;;;;7.60;4.40;;;3.10;99.90;;;;;;5119379;28;20224;-42
2021/03/23 11:10:34;;;;;;;7.47;4.35;;;3.10;99.90;;;;;;5121419;28;20533;-43
2021/03/23 11:13:04;;;;;;;5.30;4.32;;;3.20;99.90;;;;;;5121774;28;20215;-43
2021/03/23 11:15:36;;;;;;;7.15;5.00;;;3.20;99.90;;;;;;5121869;28;20650;-42
2021/03/23 11:18:16;;;;;;;9.07;5.57;;;3.20;99.90;;;;;;5120002;28;20299;-42
2021/03/23 11:20:48;;;;;;;7.13;4.75;;;3.20;99.90;;;;;;5122609;28;20658;-43
2021/03/23 11:23:33;;;;;;;8.32;5.20;;;3.10;99.90;;;;;;5119002;28;20191;-44
2021/03/23 11:26:06;;;;;;;9.70;4.97;;;3.10;99.90;;;;;;5115863;28;20199;-43
2021/03/23 11:28:36;;;;;;;5.90;4.50;;;3.00;99.90;;;;;;5121963;28;20223;-43
2021/03/23 11:31:07;;;;;;;6.65;4.75;;;3.00;99.90;;;;;;5121903;28;20233;-42
2021/03/23 11:33:39;;;;;;;6.15;4.72;;;3.00;99.90;;;;;;5122435;28;20276;-42
2021/03/23 11:36:11;;;;;;;8.55;4.55;;;2.90;99.90;;;;;;5120964;28;20619;-43
2021/03/23 11:38:41;;;;;;;4.65;3.88;;;2.90;99.90;;;;;;5122757;28;20199;-42
2021/03/23 11:41:18;;;;;;;7.68;5.40;;;2.80;99.90;;;;;;5122856;28;20204;-42
2021/03/23 11:43:51;;;;;;;10.25;5.10;;;2.80;99.90;;;;;;5121361;28;20647;-44
2021/03/23 11:46:23;;;;;;;8.15;6.13;;;2.80;99.90;;;;;;5114351;28;20297;-44
2021/03/23 11:49:06;;;;;;;6.90;4.10;;;2.90;99.90;;;;;;5126122;28;20292;-42
2021/03/23 11:51:37;;;;;;;8.57;5.10;;;3.00;99.90;;;;;;5125030;28;20237;-42
2021/03/23 11:54:07;;;;;;;8.02;4.75;;;2.90;99.90;;;;;;5126504;28;20204;-42
2021/03/23 11:56:38;;;;;;;9.05;4.70;;;2.90;99.90;;;;;;5124067;28;20226;-42
2021/03/23 11:59:09;;;;;;;7.07;4.38;;;2.90;99.90;;;;;;5126260;28;20210;-43
2021/03/23 12:01:39;;;;;;;5.90;4.00;;;2.80;99.90;;;;;;5125851;28;20336;-42
2021/03/23 12:04:12;;;;;;;7.45;4.82;;;2.80;99.90;;;;;;5119269;28;20551;-43
2021/03/23 12:06:51;;;;;;;8.68;4.82;;;2.80;99.90;;;;;;5112605;28;20195;-43
2021/03/23 12:09:28;;;;;;;6.40;4.43;;;2.70;99.90;;;;;;5124218;28;20224;-43
2021/03/23 12:12:05;;;;;;;7.95;5.25;;;2.70;99.90;;;;;;5121976;28;20184;-42
2021/03/23 12:14:43;;;;;;;5.30;4.07;;;2.60;99.90;;;;;;5126217;28;20203;-42
2021/03/23 12:17:17;;;;;;;6.35;4.70;;;2.60;99.90;;;;;;5125835;28;20196;-42
2021/03/23 12:19:51;;;;;;;9.23;4.65;;;2.60;99.90;;;;;;5125743;28;20199;-42
2021/03/23 12:22:28;;;;;;;10.52;5.85;;;2.50;99.90;;;;;;5124491;28;20199;-43
2021/03/23 12:24:58;;;;;;;8.55;5.40;;;2.50;99.90;;;;;;5124931;28;20679;-42
2021/03/23 12:27:29;;;;;;;6.88;4.90;;;2.70;99.90;;;;;;5124136;28;20260;-42
2021/03/23 12:30:01;;;;;;;5.82;3.90;;;2.70;99.90;;;;;;5124779;28;20224;-42
2021/03/23 12:32:32;;;;;;;7.85;5.38;;;2.80;99.90;;;;;;5125575;28;20252;-43
2021/03/23 12:35:09;;;;;;;9.18;4.70;;;2.80;99.90;;;;;;5125879;28;20317;-42
2021/03/23 12:37:41;;;;;;;8.15;5.72;;;2.90;99.90;;;;;;5124715;28;20199;-43
2021/03/23 12:40:13;;;;;;;7.63;5.00;;;2.90;99.90;;;;;;5124119;28;20219;-43
2021/03/23 12:42:46;;;;;;;7.03;5.30;;;3.00;99.90;;;;;;5123372;28;20590;-42
2021/03/23 12:45:31;;;;;;;7.95;4.68;;;3.10;99.90;;;;;;5125125;28;20320;-43
2021/03/23 12:48:01;;;;;;;5.97;4.28;;;3.20;99.90;;;;;;5111672;28;20246;-43
2021/03/23 12:50:33;;;;;;;6.47;4.57;;;3.20;99.90;;;;;;5125691;28;20275;-43
2021/03/23 12:53:05;;;;;;;6.97;5.15;;;3.30;99.90;;;;;;5125006;28;20656;-42
2021/03/23 12:55:35;;;;;;;6.97;4.55;;;3.30;99.90;;;;;;5122316;28;20246;-43
2021/03/23 12:58:07;;;;;;;7.68;5.25;;;3.40;99.90;;;;;;5123947;28;20199;-42
2021/03/23 13:00:39;;;;;;;7.03;4.57;;;3.30;99.90;;;;;;5125234;28;20229;-44
2021/03/23 13:03:13;;;;;;;5.75;5.18;;;3.30;99.90;;;;;;5123960;28;20192;-43
2021/03/23 13:05:45;;;;;;;7.50;5.00;;;3.30;99.90;;;;;;5125576;28;20190;-43
2021/03/23 13:08:26;;;;;;;6.05;4.35;;;3.30;99.90;;;;;;5125146;28;20660;-42
2021/03/23 13:10:59;;;;;;;9.43;5.50;;;3.30;99.90;;;;;;5124770;28;20301;-43
2021/03/23 13:13:31;;;;;;;5.60;4.57;;;3.30;99.90;;;;;;5123724;28;20200;-42
2021/03/23 13:16:02;;;;;;;6.82;4.22;;;3.40;99.90;;;;;;5125101;28;20624;-42
2021/03/23 13:18:33;;;;;;;6.38;4.68;;;3.50;99.90;;;;;;5123578;28;20199;-43
2021/03/23 13:21:07;;;;;;;8.38;5.03;;;3.50;99.90;;;;;;5123967;28;20531;-43
2021/03/23 13:23:41;;;;;;;5.00;4.50;;;3.50;99.90;;;;;;5125391;28;20208;-43
2021/03/23 13:26:11;;;;;;;5.65;4.60;;;3.50;99.90;;;;;;5119434;28;20203;-43
2021/03/23 13:28:53;;;;;;;5.35;4.60;;;3.40;99.90;;;;;;5124517;28;20216;-43
2021/03/23 13:31:25;;;;;;;5.47;4.85;;;3.40;99.90;;;;;;5123771;28;20211;-43
2021/03/23 13:33:55;;;;;;;8.65;5.78;;;3.40;99.90;;;;;;5124365;28;20199;-43
2021/03/23 13:36:33;;;;;;;8.63;5.00;;;3.50;99.90;;;;;;5123420;28;20301;-43
2021/03/23 13:39:07;;;;;;;5.68;4.60;;;3.50;99.90;;;;;;5125368;28;20295;-43
2021/03/23 13:41:38;;;;;;;10.55;5.80;;;3.60;99.90;;;;;;5122184;28;20243;-44